createdAt,value
2023-03-24T00:02:29.628Z,15.34
2023-03-24T00:09:31.244Z,15.46
2023-03-24T00:16:34.861Z,15.41
2023-03-24T00:23:36.488Z,15.37
2023-03-24T00:30:38.640Z,15.35
2023-03-24T00:37:41.577Z,15.31
2023-03-24T00:44:44.876Z,15.36
2023-03-24T00:51:46.459Z,15.33
2023-03-24T00:58:48.148Z,15.40
2023-03-24T01:05:49.731Z,15.18
2023-03-24T01:12:52.154Z,15.12
2023-03-24T01:19:53.804Z,15.25
2023-03-24T01:26:55.348Z,14.97
2023-03-24T01:33:57.113Z,15.26
2023-03-24T01:40:58.720Z,15.17
2023-03-24T01:48:00.521Z,15.19
2023-03-24T01:55:09.358Z,15.01
2023-03-24T02:02:13.683Z,15.21
2023-03-24T02:09:25.416Z,14.99
2023-03-24T02:16:38.199Z,15.11
2023-03-24T02:24:31.566Z,15.09
2023-03-24T02:32:06.544Z,15.03
2023-03-24T02:39:45.789Z,15.11
2023-03-24T02:46:53.616Z,15.17
2023-03-24T02:54:07.208Z,15.18
2023-03-24T03:01:14.830Z,15.33
2023-03-24T03:08:35.088Z,15.21
2023-03-24T03:15:39.554Z,15.21
2023-03-24T03:22:47.167Z,15.24
2023-03-24T03:29:54.221Z,15.15
2023-03-24T03:37:04.482Z,15.09
2023-03-24T03:44:06.469Z,15.16
2023-03-24T03:51:13.883Z,15.01
2023-03-24T03:58:23.007Z,15.03
2023-03-24T04:05:33.472Z,14.98
2023-03-24T04:12:57.202Z,15.11
2023-03-24T04:20:25.153Z,15.00
2023-03-24T04:27:38.370Z,15.02
2023-03-24T04:34:45.010Z,15.04
2023-03-24T04:42:04.100Z,15.02
2023-03-24T04:49:06.273Z,15.09
2023-03-24T04:56:41.048Z,15.15
2023-03-24T05:03:53.190Z,15.11
2023-03-24T05:10:55.008Z,15.26
2023-03-24T05:17:56.835Z,15.20
2023-03-24T05:25:00.427Z,15.03
2023-03-24T05:32:02.152Z,15.23
2023-03-24T05:39:05.619Z,15.07
2023-03-24T05:46:18.218Z,15.24
2023-03-24T05:53:21.820Z,15.27
2023-03-24T06:00:41.795Z,15.30
2023-03-24T06:07:50.345Z,15.31
2023-03-24T06:14:52.524Z,15.67
2023-03-24T06:21:54.246Z,15.48
2023-03-24T06:29:02.006Z,15.49
2023-03-24T06:36:09.046Z,15.53
2023-03-24T06:43:11.694Z,15.70
2023-03-24T06:50:17.472Z,15.60
2023-03-24T06:57:19.256Z,15.96
2023-03-24T07:04:39.436Z,15.91
2023-03-24T07:11:49.267Z,15.98
2023-03-24T07:18:51.612Z,16.29
2023-03-24T07:25:53.483Z,16.33
2023-03-24T07:33:18.118Z,16.55
2023-03-24T07:40:20.326Z,16.45
2023-03-24T07:47:22.212Z,16.87
2023-03-24T07:54:24.763Z,16.97
2023-03-24T08:01:27.893Z,17.30
2023-03-24T08:08:36.353Z,17.01
2023-03-24T08:15:37.994Z,16.75
2023-03-24T08:22:39.749Z,16.62
2023-03-24T08:29:41.344Z,16.43
2023-03-24T08:36:43.011Z,16.81
2023-03-24T08:43:44.640Z,16.52
2023-03-24T08:50:46.411Z,16.58
2023-03-24T08:57:48.322Z,16.39
2023-03-24T09:04:53.865Z,16.80
2023-03-24T09:11:55.745Z,16.79
2023-03-24T09:18:57.308Z,16.94
2023-03-24T09:25:58.957Z,16.98
2023-03-24T09:33:00.679Z,17.06
2023-03-24T09:40:02.388Z,16.95
2023-03-24T09:47:16.524Z,17.24
2023-03-24T09:54:27.271Z,17.91
2023-03-24T10:01:29.152Z,18.22
2023-03-24T10:08:33.797Z,18.18
2023-03-24T10:16:11.181Z,18.09
2023-03-24T10:23:27.410Z,18.24
2023-03-24T10:30:33.420Z,18.45
2023-03-24T10:37:35.439Z,18.28
2023-03-24T10:44:37.240Z,19.25
2023-03-24T10:51:41.231Z,20.08
2023-03-24T10:58:43.275Z,19.59
2023-03-24T11:05:44.953Z,19.40
2023-03-24T11:12:55.557Z,19.54
2023-03-24T11:19:57.470Z,19.34
2023-03-24T11:27:02.256Z,19.57
2023-03-24T11:34:24.142Z,20.54
2023-03-24T11:41:26.135Z,20.45
2023-03-24T11:48:32.704Z,20.99
2023-03-24T11:55:49.519Z,21.44
2023-03-24T12:03:15.995Z,21.36
2023-03-24T12:10:36.166Z,20.81
2023-03-24T12:17:53.826Z,20.39
2023-03-24T12:25:10.758Z,20.37
2023-03-24T12:32:33.461Z,20.35
2023-03-24T12:39:37.362Z,20.20
2023-03-24T12:46:47.658Z,20.07
2023-03-24T12:54:05.856Z,19.78
2023-03-24T13:01:08.344Z,19.91
2023-03-24T13:08:23.299Z,19.73
2023-03-24T13:15:40.253Z,19.43
2023-03-24T13:22:41.801Z,19.48
2023-03-24T13:30:05.754Z,19.62
2023-03-24T13:37:24.431Z,19.32
2023-03-24T13:44:44.051Z,18.83
2023-03-24T13:51:45.966Z,18.62
2023-03-24T13:59:10.336Z,18.30
2023-03-24T14:06:16.422Z,18.44
2023-03-24T14:13:19.371Z,18.16
2023-03-24T14:20:33.540Z,17.88
2023-03-24T14:27:45.293Z,17.82
2023-03-24T14:34:55.203Z,17.92
2023-03-24T14:41:59.049Z,18.17
2023-03-24T14:49:23.483Z,18.47
2023-03-24T14:56:34.930Z,18.70
2023-03-24T15:03:42.713Z,18.83
2023-03-24T15:10:55.523Z,19.45
2023-03-24T15:17:57.105Z,19.15
2023-03-24T15:24:58.684Z,19.52
2023-03-24T15:32:00.295Z,19.41
2023-03-24T15:39:05.052Z,19.42
2023-03-24T15:46:12.318Z,19.70
2023-03-24T15:53:14.156Z,19.52
2023-03-24T16:00:23.410Z,19.40
2023-03-24T16:07:32.562Z,19.17
2023-03-24T16:14:35.533Z,18.87
2023-03-24T16:21:37.098Z,18.86
2023-03-24T16:28:38.641Z,18.79
2023-03-24T16:35:40.310Z,18.59
2023-03-24T16:42:41.844Z,18.69
2023-03-24T16:49:43.400Z,18.80
2023-03-24T16:56:44.932Z,18.57
2023-03-24T17:03:49.722Z,18.45
2023-03-24T17:10:52.246Z,18.45
2023-03-24T17:17:54.187Z,18.50
2023-03-24T17:24:58.140Z,18.14
2023-03-24T17:31:59.737Z,18.11
2023-03-24T17:39:01.318Z,17.93
2023-03-24T17:46:03.270Z,17.78
2023-03-24T17:53:04.818Z,17.80
2023-03-24T18:00:08.763Z,17.73
2023-03-24T18:07:10.795Z,17.75
2023-03-24T18:14:12.374Z,17.71
2023-03-24T18:21:13.949Z,17.71
2023-03-24T18:28:15.831Z,17.51
2023-03-24T18:35:17.389Z,17.43
2023-03-24T18:42:19.098Z,17.45
2023-03-24T18:49:20.661Z,17.27
2023-03-24T18:56:22.696Z,17.15
2023-03-24T19:03:25.226Z,17.09
2023-03-24T19:10:27.232Z,17.00
2023-03-24T19:17:28.865Z,17.00
2023-03-24T19:24:30.771Z,16.94
2023-03-24T19:31:33.529Z,16.87
2023-03-24T19:38:35.963Z,16.79
2023-03-24T19:45:42.363Z,16.75
2023-03-24T19:52:45.871Z,16.77
2023-03-24T19:59:47.530Z,16.68
2023-03-24T20:06:49.071Z,16.75
2023-03-24T20:13:50.831Z,16.70
2023-03-24T20:20:54.908Z,16.44
2023-03-24T20:27:56.630Z,16.31
2023-03-24T20:34:58.332Z,16.25
2023-03-24T20:41:59.944Z,16.05
2023-03-24T20:49:02.061Z,15.92
2023-03-24T20:56:08.392Z,15.92
2023-03-24T21:03:10.095Z,15.86
2023-03-24T21:10:11.717Z,15.90
2023-03-24T21:17:13.410Z,15.90
2023-03-24T21:24:15.982Z,15.69
2023-03-24T21:31:23.153Z,15.53
2023-03-24T21:38:24.823Z,15.78
2023-03-24T21:45:27.466Z,15.70
2023-03-24T21:52:29.541Z,15.73
2023-03-24T21:59:31.721Z,15.48
2023-03-24T22:06:37.565Z,15.64
2023-03-24T22:13:39.561Z,15.24
2023-03-24T22:20:41.104Z,15.38
2023-03-24T22:27:42.653Z,15.17
2023-03-24T22:34:44.210Z,15.25
2023-03-24T22:41:45.963Z,15.13
2023-03-24T22:48:47.466Z,15.17
2023-03-24T22:55:49.330Z,14.93
2023-03-24T23:02:51.548Z,14.96
2023-03-24T23:09:53.266Z,14.80
2023-03-24T23:16:56.095Z,14.83
2023-03-24T23:23:57.623Z,14.77
2023-03-24T23:30:59.262Z,14.45
2023-03-24T23:38:02.273Z,14.24
2023-03-24T23:45:05.067Z,14.27
2023-03-24T23:52:06.647Z,14.15
2023-03-24T23:59:08.983Z,13.96
